ΕΜΥ, Εθνική Μετεωρολογική Υπηρεσία - Δελτία Καιρού, Προγνώσεις

ΑΕΡΟΝΑΥΤΙΛΙΑ

GREEK AIRPORTS CODES

LGKF 251550Z 24004KT 9999 SCT016 15/11 Q1027=

EUROPEAN AIRPORTS CODES

EKCH 251550Z 23009KT 9999 FEW009 SCT012 BKN033 06/05 Q1017BECMG 2000 BR BKN005=